Time;durP1;ratioP1;P1;durP2;ratioP2;P2;SDS_P1;SDS_P2;PMS_P1;PMS_P2;Temp;Humidity;BMP_temperature;BMP_pressure;BME280_temperature;BME280_humidity;BME280_pressure;Samples;Min_cycle;Max_cycle;Signal;HPM_P1;HPM_P2
2023/09/27 00:01:57;;;;;;;3.05;1.50;;;15.20;94.50;;;;;;4945102;28;20398;-91
2023/09/27 00:04:24;;;;;;;3.70;1.90;;;15.20;94.40;;;;;;4961261;28;20054;-92
2023/09/27 00:06:52;;;;;;;4.13;2.20;;;15.20;94.40;;;;;;4930183;28;20051;-92
2023/09/27 00:09:19;;;;;;;3.83;1.92;;;15.20;94.40;;;;;;4945015;28;20093;-91
2023/09/27 00:11:49;;;;;;;4.28;1.83;;;15.30;94.40;;;;;;4930063;28;20469;-91
2023/09/27 00:14:20;;;;;;;4.55;1.67;;;15.30;94.30;;;;;;4945118;28;20109;-92
2023/09/27 00:16:49;;;;;;;3.92;1.90;;;15.40;94.30;;;;;;4976789;28;20047;-91
2023/09/27 00:19:19;;;;;;;3.58;2.13;;;15.40;94.30;;;;;;4961512;28;20055;-91
2023/09/27 00:21:49;;;;;;;3.65;2.17;;;15.50;94.30;;;;;;4974305;28;20058;-91
2023/09/27 00:24:16;;;;;;;3.75;1.90;;;15.50;94.30;;;;;;4961009;28;20046;-92
2023/09/27 00:26:43;;;;;;;3.50;1.70;;;15.60;94.30;;;;;;4941373;29;20081;-92
2023/09/27 00:29:10;;;;;;;2.90;1.70;;;15.60;94.30;;;;;;4941893;29;20054;-92
2023/09/27 00:31:38;;;;;;;5.70;2.22;;;15.60;94.20;;;;;;4941098;29;20043;-92
2023/09/27 00:34:05;;;;;;;3.25;1.98;;;15.60;94.20;;;;;;4949163;29;20075;-92
2023/09/27 00:36:37;;;;;;;4.15;1.92;;;15.70;94.30;;;;;;4941934;29;20050;-92
2023/09/27 00:39:04;;;;;;;3.90;1.90;;;15.70;94.30;;;;;;4959439;28;20046;-93
2023/09/27 00:41:31;;;;;;;3.85;2.03;;;15.70;94.30;;;;;;4979156;28;20056;-92
2023/09/27 00:43:58;;;;;;;3.63;1.98;;;15.70;94.30;;;;;;4979578;28;20082;-92
2023/09/27 00:46:26;;;;;;;4.40;2.08;;;15.70;94.30;;;;;;4943127;29;20568;-92
2023/09/27 00:48:54;;;;;;;2.97;1.77;;;15.70;94.30;;;;;;4956919;29;20043;-92
2023/09/27 00:51:26;;;;;;;4.22;2.15;;;15.70;94.30;;;;;;4941538;29;20082;-92
2023/09/27 00:54:02;;;;;;;4.03;2.25;;;15.70;94.40;;;;;;4960135;28;20050;-91
2023/09/27 00:56:31;;;;;;;3.17;1.73;;;15.60;94.40;;;;;;4964291;28;20058;-92
2023/09/27 00:58:59;;;;;;;3.55;1.85;;;15.60;94.50;;;;;;4959441;28;20078;-92
2023/09/27 01:01:28;;;;;;;3.75;2.22;;;15.50;94.60;;;;;;4962359;28;20138;-92
2023/09/27 01:03:58;;;;;;;4.03;2.25;;;15.40;94.60;;;;;;4979351;28;20137;-92
2023/09/27 01:06:25;;;;;;;4.32;1.83;;;15.40;94.70;;;;;;4945644;29;20047;-92
2023/09/27 01:08:54;;;;;;;3.45;1.65;;;15.30;94.80;;;;;;4946147;28;20051;-92
2023/09/27 01:11:24;;;;;;;3.35;2.17;;;15.30;94.80;;;;;;4926055;29;20047;-92
2023/09/27 01:13:54;;;;;;;5.32;2.90;;;15.20;94.90;;;;;;4924935;29;20047;-93
2023/09/27 01:16:24;;;;;;;4.65;2.35;;;15.20;94.90;;;;;;4925512;29;20049;-92
2023/09/27 01:18:51;;;;;;;4.57;2.55;;;15.10;94.90;;;;;;4936659;28;20050;-92
2023/09/27 01:21:24;;;;;;;4.30;2.10;;;15.10;95.00;;;;;;4951646;28;20089;-92
2023/09/27 01:23:56;;;;;;;3.92;2.58;;;15.00;95.00;;;;;;4944531;28;20097;-92
2023/09/27 01:26:25;;;;;;;3.78;2.33;;;14.90;95.10;;;;;;4943938;28;20105;-91
2023/09/27 01:28:58;;;;;;;5.20;3.08;;;14.90;95.10;;;;;;4944110;28;20047;-92
2023/09/27 01:31:25;;;;;;;4.47;2.60;;;14.90;95.10;;;;;;4927948;28;20046;-91
2023/09/27 01:34:00;;;;;;;6.00;3.08;;;14.80;95.20;;;;;;4960992;28;20043;-91
2023/09/27 01:36:30;;;;;;;4.00;2.58;;;14.80;95.20;;;;;;4959905;28;20137;-91
2023/09/27 01:38:59;;;;;;;3.67;2.45;;;14.70;95.20;;;;;;4959319;28;20050;-91
2023/09/27 01:41:28;;;;;;;4.20;2.35;;;14.70;95.20;;;;;;4959806;28;20057;-91
2023/09/27 01:43:56;;;;;;;4.38;2.28;;;14.70;95.30;;;;;;4959259;28;20046;-91
2023/09/27 01:46:23;;;;;;;4.13;2.53;;;14.60;95.30;;;;;;4943291;28;20137;-92
2023/09/27 01:48:51;;;;;;;4.70;2.63;;;14.60;95.40;;;;;;4947401;28;20042;-92
2023/09/27 01:51:19;;;;;;;5.50;3.20;;;14.50;95.40;;;;;;4965824;28;20082;-92
2023/09/27 01:53:47;;;;;;;4.40;2.22;;;14.50;95.40;;;;;;4961837;28;20047;-92
2023/09/27 01:56:21;;;;;;;4.15;2.42;;;14.50;95.40;;;;;;4981363;28;20051;-92
2023/09/27 01:58:51;;;;;;;4.18;2.20;;;14.40;95.40;;;;;;4981527;28;20118;-92
2023/09/27 02:01:19;;;;;;;4.63;2.50;;;14.40;95.40;;;;;;4968236;28;20046;-92
2023/09/27 02:03:46;;;;;;;5.15;3.08;;;14.40;95.50;;;;;;4984783;28;20109;-93
2023/09/27 02:06:18;;;;;;;5.00;2.75;;;14.40;95.50;;;;;;4964166;28;20136;-92
2023/09/27 02:08:48;;;;;;;4.32;2.47;;;14.40;95.50;;;;;;4947715;28;20042;-92
2023/09/27 02:11:16;;;;;;;5.60;3.03;;;14.30;95.50;;;;;;4978826;28;20050;-92
2023/09/27 02:13:44;;;;;;;4.95;2.90;;;14.30;95.50;;;;;;4962967;28;20078;-93
2023/09/27 02:16:11;;;;;;;5.25;2.47;;;14.30;95.50;;;;;;4962519;28;20050;-93
2023/09/27 02:18:39;;;;;;;4.65;3.15;;;14.30;95.50;;;;;;4966454;28;20052;-92
2023/09/27 02:21:06;;;;;;;4.38;2.80;;;14.30;95.50;;;;;;4982033;28;20084;-93
2023/09/27 02:23:33;;;;;;;4.60;2.55;;;14.20;95.50;;;;;;4982013;28;20129;-93
2023/09/27 02:26:02;;;;;;;3.97;2.55;;;14.20;95.50;;;;;;4982278;28;20046;-92
2023/09/27 02:28:30;;;;;;;3.30;2.20;;;14.20;95.50;;;;;;4981486;28;20048;-92
2023/09/27 02:30:59;;;;;;;4.60;2.70;;;14.20;95.60;;;;;;4982067;28;20046;-92
2023/09/27 02:33:29;;;;;;;3.30;2.03;;;14.10;95.60;;;;;;4958943;28;20408;-92
2023/09/27 02:35:59;;;;;;;4.47;2.40;;;14.10;95.60;;;;;;4958926;28;20050;-92
2023/09/27 02:38:28;;;;;;;3.83;2.35;;;14.10;95.60;;;;;;4943089;28;20055;-92
2023/09/27 02:40:58;;;;;;;4.93;2.63;;;14.10;95.60;;;;;;4943071;28;20051;-92
2023/09/27 02:43:25;;;;;;;5.88;2.85;;;14.10;95.60;;;;;;4942464;28;20069;-92
2023/09/27 02:45:52;;;;;;;4.07;2.40;;;14.10;95.60;;;;;;4943051;28;20105;-92
2023/09/27 02:48:19;;;;;;;5.25;2.88;;;14.00;95.60;;;;;;4958503;28;20057;-92
2023/09/27 02:50:52;;;;;;;5.20;2.65;;;14.00;95.60;;;;;;4943362;28;20051;-92
2023/09/27 02:53:20;;;;;;;4.57;2.42;;;14.00;95.70;;;;;;4968413;28;20088;-92
2023/09/27 02:55:50;;;;;;;5.57;2.78;;;14.00;95.70;;;;;;4981705;28;20045;-92
2023/09/27 02:58:18;;;;;;;4.45;2.17;;;14.00;95.70;;;;;;4960268;28;20047;-92
2023/09/27 03:00:46;;;;;;;4.75;2.60;;;13.90;95.90;;;;;;4942493;28;20051;-92
2023/09/27 03:03:13;;;;;;;3.78;2.25;;;13.90;95.70;;;;;;4958328;28;20043;-92
2023/09/27 03:05:44;;;;;;;5.50;2.90;;;13.90;95.70;;;;;;4945169;28;20051;-93
2023/09/27 03:08:12;;;;;;;4.13;2.28;;;13.90;95.70;;;;;;4946688;28;20097;-92
2023/09/27 03:10:39;;;;;;;3.38;2.50;;;13.90;95.70;;;;;;4946445;28;20046;-92
2023/09/27 03:13:08;;;;;;;3.67;2.42;;;13.80;95.70;;;;;;4946537;28;20047;-93
2023/09/27 03:15:36;;;;;;;3.47;2.17;;;13.80;95.70;;;;;;4946198;28;20047;-92
2023/09/27 03:18:03;;;;;;;5.10;3.22;;;13.80;95.70;;;;;;4961751;28;20047;-93
2023/09/27 03:20:33;;;;;;;4.65;2.83;;;13.80;95.70;;;;;;4946582;28;20058;-93
2023/09/27 03:23:03;;;;;;;4.53;2.88;;;13.80;95.70;;;;;;4946228;28;20046;-93
2023/09/27 03:25:30;;;;;;;4.80;2.80;;;13.80;95.70;;;;;;4958301;28;20508;-93
2023/09/27 03:28:01;;;;;;;5.68;2.88;;;13.80;95.70;;;;;;4961807;28;20133;-93
2023/09/27 03:30:31;;;;;;;4.22;2.70;;;13.80;95.70;;;;;;4946496;28;20512;-92
2023/09/27 03:32:58;;;;;;;5.65;2.78;;;13.70;95.70;;;;;;4961982;28;20046;-92
2023/09/27 03:35:26;;;;;;;5.00;2.70;;;13.70;95.70;;;;;;4961808;28;20055;-93
2023/09/27 03:37:56;;;;;;;4.57;2.47;;;13.70;95.80;;;;;;4945973;28;20090;-93
2023/09/27 03:40:24;;;;;;;4.88;2.70;;;13.70;95.80;;;;;;4946728;28;20109;-94
2023/09/27 03:42:51;;;;;;;4.40;2.90;;;13.70;95.80;;;;;;4961701;28;20568;-93
2023/09/27 03:45:19;;;;;;;4.47;2.50;;;13.70;95.80;;;;;;4962009;28;20082;-93
2023/09/27 03:47:52;;;;;;;4.65;2.58;;;13.70;95.80;;;;;;4945830;28;20055;-93
2023/09/27 03:50:21;;;;;;;4.50;2.47;;;13.70;95.80;;;;;;4946164;28;20046;-93
2023/09/27 03:52:48;;;;;;;5.35;3.10;;;13.60;95.80;;;;;;4961442;28;20046;-94
2023/09/27 03:55:20;;;;;;;5.10;3.20;;;13.60;95.80;;;;;;4962142;28;20039;-93
2023/09/27 03:57:53;;;;;;;4.25;2.95;;;13.60;95.80;;;;;;4961462;28;20047;-93
2023/09/27 04:00:20;;;;;;;4.97;3.33;;;13.60;95.80;;;;;;4945772;28;20047;-93
2023/09/27 04:02:50;;;;;;;4.88;2.97;;;13.60;95.80;;;;;;4961674;28;20054;-93
2023/09/27 04:05:19;;;;;;;4.57;2.85;;;13.60;95.80;;;;;;4945505;28;20051;-94
2023/09/27 04:07:50;;;;;;;5.60;3.28;;;13.60;95.80;;;;;;4961408;28;20050;-94
2023/09/27 04:10:20;;;;;;;5.38;3.67;;;13.60;95.80;;;;;;4961547;28;20051;-94
2023/09/27 04:12:51;;;;;;;4.53;3.28;;;13.60;95.80;;;;;;4945642;28;20409;-93
2023/09/27 04:15:18;;;;;;;4.97;3.33;;;13.60;95.80;;;;;;4961314;28;20478;-93
2023/09/27 04:17:45;;;;;;;4.63;2.88;;;13.60;95.80;;;;;;4960793;28;20051;-93
2023/09/27 04:20:16;;;;;;;6.13;3.80;;;13.60;95.80;;;;;;4944887;28;20051;-93
2023/09/27 04:22:47;;;;;;;4.85;2.80;;;13.60;95.80;;;;;;4961295;28;20074;-93
2023/09/27 04:25:16;;;;;;;5.20;3.20;;;13.60;95.80;;;;;;4961259;28;20086;-93
2023/09/27 04:27:50;;;;;;;5.60;3.17;;;13.60;95.90;;;;;;4961049;28;20054;-92
2023/09/27 04:30:22;;;;;;;4.85;2.80;;;13.60;95.80;;;;;;4961074;28;20110;-93
2023/09/27 04:32:51;;;;;;;5.70;3.28;;;13.50;95.80;;;;;;4945721;28;20054;-93
2023/09/27 04:35:20;;;;;;;6.45;3.08;;;13.50;95.80;;;;;;4961653;28;20039;-93
2023/09/27 04:37:48;;;;;;;4.47;2.25;;;13.50;95.80;;;;;;4961177;28;20146;-93
2023/09/27 04:40:17;;;;;;;5.00;2.75;;;13.50;95.80;;;;;;4944765;28;20121;-92
2023/09/27 04:42:47;;;;;;;6.03;3.60;;;13.50;95.80;;;;;;4944919;28;20078;-93
2023/09/27 04:45:15;;;;;;;5.72;2.88;;;13.50;95.80;;;;;;4961009;28;20054;-92
2023/09/27 04:47:44;;;;;;;4.28;2.78;;;13.50;95.90;;;;;;4960638;28;20121;-92
2023/09/27 04:50:17;;;;;;;4.25;3.17;;;13.40;95.90;;;;;;4945374;28;20047;-92
2023/09/27 04:52:53;;;;;;;5.05;3.13;;;13.40;95.90;;;;;;4960780;28;20075;-93
2023/09/27 04:55:26;;;;;;;5.07;3.28;;;13.50;95.90;;;;;;4976399;28;20420;-93
2023/09/27 04:57:53;;;;;;;4.40;2.95;;;13.40;95.90;;;;;;4929107;28;20141;-93
2023/09/27 05:00:22;;;;;;;4.93;2.72;;;13.40;95.90;;;;;;4960397;28;20046;-93
2023/09/27 05:02:51;;;;;;;4.97;3.00;;;13.40;95.90;;;;;;4960317;28;20057;-93
2023/09/27 05:05:19;;;;;;;5.05;3.40;;;13.40;95.90;;;;;;4945042;28;20097;-92
2023/09/27 05:07:48;;;;;;;4.38;3.00;;;13.40;95.90;;;;;;4944333;28;20109;-93
2023/09/27 05:10:15;;;;;;;5.53;3.60;;;13.40;96.00;;;;;;4944185;28;20401;-93
2023/09/27 05:12:45;;;;;;;5.90;3.28;;;13.30;96.00;;;;;;4944472;28;20062;-93
2023/09/27 05:15:12;;;;;;;4.43;3.05;;;13.40;96.00;;;;;;4943751;28;20043;-92
2023/09/27 05:17:39;;;;;;;5.90;3.83;;;13.40;96.00;;;;;;4959384;28;20066;-93
2023/09/27 05:20:10;;;;;;;5.47;3.58;;;13.40;96.00;;;;;;4943987;28;20050;-93
2023/09/27 05:22:41;;;;;;;6.45;3.15;;;13.40;96.00;;;;;;4929437;28;20055;-92
2023/09/27 05:25:14;;;;;;;5.32;3.15;;;13.40;96.00;;;;;;4971442;28;20054;-85
2023/09/27 05:27:41;;;;;;;4.88;3.22;;;13.40;95.90;;;;;;4977913;28;20496;-85
2023/09/27 05:30:11;;;;;;;6.88;3.60;;;13.40;95.90;;;;;;4961558;28;20415;-85
2023/09/27 05:32:44;;;;;;;5.18;3.47;;;13.50;96.00;;;;;;4968905;28;20049;-86
2023/09/27 05:35:15;;;;;;;5.95;3.95;;;13.50;95.90;;;;;;4980741;28;20548;-86
2023/09/27 05:37:42;;;;;;;5.05;3.25;;;13.50;95.90;;;;;;4959167;28;20477;-85
2023/09/27 05:40:12;;;;;;;4.93;3.40;;;13.50;95.90;;;;;;4961846;28;20141;-85
2023/09/27 05:42:42;;;;;;;5.88;3.38;;;13.50;95.90;;;;;;4963950;28;20061;-85
2023/09/27 05:45:11;;;;;;;5.47;3.42;;;13.50;95.90;;;;;;4970663;28;20130;-88
2023/09/27 05:48:00;;;;;;;;;;;;;;;;;;;;;
2023/09/27 05:50:28;;;;;;;6.00;3.95;;;13.60;95.80;;;;;;4987351;28;20508;-86
2023/09/27 05:52:56;;;;;;;5.90;3.50;;;13.60;95.80;;;;;;4960275;28;20081;-86
2023/09/27 05:55:23;;;;;;;4.45;3.05;;;13.60;95.80;;;;;;4968415;28;20558;-86
2023/09/27 05:57:55;;;;;;;5.03;3.17;;;13.60;95.80;;;;;;4973266;28;20130;-85
2023/09/27 06:00:26;;;;;;;4.28;3.00;;;13.60;95.80;;;;;;4942329;28;20046;-85
2023/09/27 06:02:54;;;;;;;5.13;3.47;;;13.60;95.80;;;;;;4969198;28;20137;-85
2023/09/27 06:05:21;;;;;;;5.50;3.60;;;13.60;95.80;;;;;;4965462;28;20045;-86
2023/09/27 06:07:49;;;;;;;6.32;3.63;;;13.70;95.80;;;;;;4969158;28;20105;-87
2023/09/27 06:10:16;;;;;;;6.03;3.72;;;13.70;95.80;;;;;;4974048;28;20042;-86
2023/09/27 06:12:49;;;;;;;7.05;4.50;;;13.70;95.80;;;;;;4942286;28;20078;-87
2023/09/27 06:15:22;;;;;;;8.63;4.38;;;13.80;95.70;;;;;;4943187;28;20097;-87
2023/09/27 06:17:52;;;;;;;7.28;4.20;;;13.90;95.70;;;;;;4953938;28;20051;-86
2023/09/27 06:20:38;;;;;;;7.07;4.13;;;13.90;95.60;;;;;;4979227;28;20036;-86
2023/09/27 06:23:27;;;;;;;6.20;3.97;;;14.00;95.60;;;;;;4978037;28;20444;-85
2023/09/27 06:25:57;;;;;;;6.63;3.25;;;14.10;95.50;;;;;;4979194;28;20137;-86
2023/09/27 06:28:41;;;;;;;7.03;4.53;;;14.10;95.60;;;;;;4978335;28;20054;-86
2023/09/27 06:31:24;;;;;;;5.97;3.80;;;14.20;95.60;;;;;;4958036;28;20043;-86
2023/09/27 06:33:57;;;;;;;5.10;3.42;;;14.20;95.50;;;;;;4957870;28;20047;-86
2023/09/27 06:36:32;;;;;;;6.07;3.85;;;14.20;95.50;;;;;;4978524;28;20053;-86
2023/09/27 06:39:07;;;;;;;5.05;3.47;;;14.20;95.50;;;;;;4983371;28;20045;-85
2023/09/27 06:41:34;;;;;;;5.45;3.75;;;14.30;95.50;;;;;;4980620;28;20108;-86
2023/09/27 06:44:07;;;;;;;6.05;4.55;;;14.40;95.70;;;;;;4997764;28;20046;-85
2023/09/27 06:46:41;;;;;;;7.45;4.82;;;14.50;95.40;;;;;;4981224;28;20043;-85
2023/09/27 06:49:19;;;;;;;6.45;4.32;;;14.50;95.40;;;;;;4982653;28;20061;-86
2023/09/27 06:51:49;;;;;;;6.82;4.43;;;14.60;95.40;;;;;;4979056;28;20132;-85
2023/09/27 06:54:26;;;;;;;6.25;4.13;;;14.70;95.30;;;;;;4959551;28;20046;-86
2023/09/27 06:57:01;;;;;;;6.43;4.40;;;14.80;95.20;;;;;;4954160;28;20073;-86
2023/09/27 06:59:29;;;;;;;6.32;4.53;;;14.90;95.20;;;;;;4983444;28;20054;-86
2023/09/27 07:02:05;;;;;;;6.68;4.93;;;14.90;95.10;;;;;;4949421;28;20143;-86
2023/09/27 07:04:42;;;;;;;;;;;;;;;;;;;;;
2023/09/27 07:07:10;;;;;;;8.00;5.63;;;15.20;95.00;;;;;;4975307;28;20050;-86
2023/09/27 07:09:38;;;;;;;6.70;4.80;;;15.40;94.90;;;;;;4994059;28;20046;-87
2023/09/27 07:12:05;;;;;;;7.30;5.30;;;15.50;94.80;;;;;;4981158;28;20042;-86
2023/09/27 07:14:32;;;;;;;7.28;5.18;;;15.60;94.70;;;;;;4975309;28;20050;-86
2023/09/27 07:17:29;;;;;;;7.22;5.13;;;15.70;94.60;;;;;;4989237;28;20088;-86
2023/09/27 07:20:00;;;;;;;8.18;5.82;;;15.70;94.60;;;;;;4977820;28;20054;-85
2023/09/27 07:22:31;;;;;;;7.00;5.32;;;15.70;94.60;;;;;;4961126;28;20100;-84
2023/09/27 07:24:58;;;;;;;6.53;5.10;;;15.70;94.60;;;;;;4972854;28;20077;-86
2023/09/27 07:27:25;;;;;;;6.50;4.97;;;15.80;94.60;;;;;;4960469;28;20048;-86
2023/09/27 07:30:23;;;;;;;8.30;5.57;;;15.90;94.60;;;;;;4974404;28;20070;-85
2023/09/27 07:32:54;;;;;;;7.88;5.60;;;15.90;94.50;;;;;;4971615;28;20049;-86
2023/09/27 07:35:51;;;;;;;8.70;5.18;;;16.00;94.50;;;;;;4973253;28;20049;-86
2023/09/27 07:38:23;;;;;;;8.40;5.03;;;16.00;94.40;;;;;;4964452;28;20124;-85
2023/09/27 07:40:50;;;;;;;7.38;5.75;;;16.10;94.40;;;;;;4966947;28;20072;-85
2023/09/27 07:43:29;;;;;;;7.35;5.72;;;16.10;94.40;;;;;;4973773;28;20046;-85
2023/09/27 07:46:01;;;;;;;7.10;4.85;;;16.10;94.40;;;;;;4990253;28;20101;-85
2023/09/27 07:48:31;;;;;;;7.93;4.70;;;16.00;94.50;;;;;;4996129;28;20058;-85
2023/09/27 07:50:59;;;;;;;9.75;5.57;;;16.00;94.50;;;;;;4962672;28;20043;-85
2023/09/27 07:53:26;;;;;;;6.65;5.18;;;16.00;94.50;;;;;;4970699;28;20408;-85
2023/09/27 07:55:55;;;;;;;8.43;6.03;;;16.00;94.60;;;;;;4948125;28;20046;-86
2023/09/27 07:58:22;;;;;;;8.13;5.53;;;16.00;94.60;;;;;;4979640;28;20073;-84
2023/09/27 08:00:50;;;;;;;7.22;4.65;;;16.10;94.60;;;;;;4967132;28;20042;-84
2023/09/27 08:03:21;;;;;;;8.82;6.40;;;16.20;94.50;;;;;;4964010;28;20058;-85
2023/09/27 08:05:55;;;;;;;11.82;6.85;;;16.30;94.50;;;;;;4969526;28;20047;-87
2023/09/27 08:08:25;;;;;;;9.23;6.35;;;16.40;94.40;;;;;;4963582;28;20042;-86
2023/09/27 08:10:57;;;;;;;7.95;6.00;;;16.40;94.40;;;;;;4979089;28;20053;-86
2023/09/27 08:13:28;;;;;;;8.13;6.40;;;16.40;94.30;;;;;;4979087;28;20050;-86
2023/09/27 08:15:58;;;;;;;7.95;6.00;;;16.50;94.40;;;;;;4975707;28;20065;-85
2023/09/27 08:18:25;;;;;;;8.27;6.40;;;16.50;94.30;;;;;;4978381;28;20050;-85
2023/09/27 08:20:55;;;;;;;8.00;5.93;;;16.60;94.30;;;;;;4963220;28;20058;-85
2023/09/27 08:23:22;;;;;;;6.72;5.80;;;16.60;94.30;;;;;;4976910;28;20056;-85
2023/09/27 08:25:50;;;;;;;7.55;5.90;;;16.70;94.30;;;;;;4963104;28;20057;-85
2023/09/27 08:28:21;;;;;;;9.13;5.68;;;16.70;94.30;;;;;;4963150;28;20051;-86
2023/09/27 08:30:59;;;;;;;7.43;5.75;;;16.80;94.30;;;;;;4979425;28;20093;-86
2023/09/27 08:33:27;;;;;;;8.70;6.22;;;16.80;94.20;;;;;;4957055;28;20057;-85
2023/09/27 08:35:55;;;;;;;8.18;6.22;;;16.80;94.20;;;;;;4981908;28;20054;-85
2023/09/27 08:38:26;;;;;;;7.68;5.78;;;16.90;94.20;;;;;;4944398;28;20146;-86
2023/09/27 08:40:58;;;;;;;9.45;6.78;;;16.90;94.20;;;;;;4980920;28;20047;-85
2023/09/27 08:43:28;;;;;;;7.65;5.50;;;17.00;94.10;;;;;;4971416;28;20077;-85
2023/09/27 08:45:58;;;;;;;;;;;17.10;94.00;;;;;;4961303;28;20051;-86
2023/09/27 08:48:28;;;;;;;7.25;5.07;;;17.10;94.00;;;;;;4998752;28;19925;-85
2023/09/27 08:51:03;;;;;;;9.10;6.10;;;17.20;94.00;;;;;;4965159;28;20045;-85
2023/09/27 08:53:32;;;;;;;7.95;5.68;;;17.30;93.90;;;;;;4969059;28;20096;-86
2023/09/27 08:56:01;;;;;;;9.65;6.32;;;17.40;93.80;;;;;;4982044;28;20092;-85
2023/09/27 08:58:31;;;;;;;9.57;6.90;;;17.50;93.70;;;;;;4978945;28;20129;-86
2023/09/27 09:01:22;;;;;;;9.32;6.70;;;17.60;93.60;;;;;;4969322;28;20051;-86
2023/09/27 09:03:52;;;;;;;7.30;5.47;;;17.70;93.50;;;;;;4969941;28;20041;-85
2023/09/27 09:06:22;;;;;;;8.02;5.68;;;17.80;93.50;;;;;;4981863;28;20050;-86
2023/09/27 09:08:50;;;;;;;6.50;4.68;;;18.00;93.30;;;;;;4978684;28;20058;-85
2023/09/27 09:11:25;;;;;;;6.80;4.50;;;18.10;93.30;;;;;;4959382;28;20136;-86
2023/09/27 09:13:57;;;;;;;8.02;5.32;;;18.30;93.20;;;;;;4970566;28;20042;-86
2023/09/27 09:16:27;;;;;;;6.40;4.88;;;18.40;93.10;;;;;;4997994;28;20053;-86
2023/09/27 09:18:59;;;;;;;7.55;4.22;;;18.50;93.00;;;;;;4972381;28;20058;-86
2023/09/27 09:21:32;;;;;;;6.35;4.60;;;18.50;92.90;;;;;;4927747;28;20059;-86
2023/09/27 09:24:19;;;;;;;6.75;4.18;;;18.70;92.90;;;;;;4972020;28;20042;-86
2023/09/27 09:26:46;;;;;;;7.53;5.20;;;18.80;92.80;;;;;;4975023;28;20050;-85
2023/09/27 09:29:14;;;;;;;4.90;3.65;;;19.00;92.70;;;;;;4974823;28;20038;-86
2023/09/27 09:31:50;;;;;;;6.28;4.18;;;19.20;92.50;;;;;;4970666;28;20137;-83
2023/09/27 09:34:17;;;;;;;7.25;5.15;;;19.30;92.40;;;;;;4966568;28;20105;-82
2023/09/27 09:36:47;;;;;;;6.90;5.43;;;19.50;92.30;;;;;;4963345;28;20050;-89
2023/09/27 09:39:21;;;;;;;5.20;3.90;;;19.60;92.10;;;;;;4951740;28;20135;-84
2023/09/27 09:41:52;;;;;;;6.85;4.80;;;19.70;92.10;;;;;;4966448;28;20050;-87
2023/09/27 09:44:24;;;;;;;6.13;3.55;;;19.80;92.00;;;;;;4983497;28;20088;-88
2023/09/27 09:46:52;;;;;;;4.88;2.92;;;20.00;92.00;;;;;;4968835;28;20046;-87
2023/09/27 09:49:22;;;;;;;4.75;3.33;;;20.00;91.90;;;;;;4961419;28;20070;-90
2023/09/27 09:51:54;;;;;;;4.10;2.80;;;20.10;91.90;;;;;;4992803;28;20134;-91
2023/09/27 09:55:02;;;;;;;4.38;3.05;;;20.10;91.80;;;;;;4961603;28;20446;-90
2023/09/27 10:02:24;;;;;;;4.47;2.53;;;20.20;91.70;;;;;;5004118;28;20053;-87
2023/09/27 10:04:55;;;;;;;4.03;2.65;;;20.30;91.80;;;;;;4965669;28;20052;-86
2023/09/27 10:08:07;;;;;;;4.50;3.15;;;20.30;91.70;;;;;;4962723;28;20046;-96
2023/09/27 10:11:24;;;;;;;3.92;2.60;;;20.40;91.60;;;;;;4984260;28;20042;-92
2023/09/27 10:14:23;;;;;;;3.22;2.00;;;20.40;91.70;;;;;;4962628;28;20042;-90
2023/09/27 10:17:00;;;;;;;4.47;3.10;;;20.50;91.60;;;;;;4982047;28;20053;-94
2023/09/27 10:19:36;;;;;;;4.93;2.80;;;20.40;91.50;;;;;;4962122;28;20605;-90
2023/09/27 10:22:14;;;;;;;4.35;2.58;;;20.50;91.60;;;;;;4979557;28;20058;-89
2023/09/27 10:25:34;;;;;;;;;;;;;;;;;;;;;
2023/09/27 10:34:30;;;;;;;3.30;1.77;;;20.60;91.30;;;;;;4961098;29;20102;-96
2023/09/27 10:37:00;;;;;;;3.17;1.60;;;20.70;91.20;;;;;;4944006;28;20061;-86
2023/09/27 10:47:50;;;;;;;;;;;;;;;;;;;;;
2023/09/27 10:55:57;;;;;;;3.35;1.40;;;21.20;90.70;;;;;;4997235;28;20153;-96
2023/09/27 11:03:00;;;;;;;3.22;1.90;;;21.20;90.60;;;;;;4923351;29;20070;-86
2023/09/27 11:05:28;;;;;;;3.25;1.98;;;21.20;90.60;;;;;;4927185;29;20049;-86
2023/09/27 11:08:02;;;;;;;3.05;1.70;;;21.10;90.70;;;;;;4969299;28;20114;-95
2023/09/27 11:33:38;;;;;;;2.42;1.23;;;21.50;90.00;;;;;;5013936;28;20054;-82
2023/09/27 11:36:06;;;;;;;2.60;1.00;;;21.40;90.00;;;;;;5015740;28;20403;-83
2023/09/27 11:38:33;;;;;;;1.88;1.10;;;21.40;90.00;;;;;;5030884;28;20096;-82
2023/09/27 11:41:14;;;;;;;2.70;1.20;;;21.40;90.00;;;;;;4977278;28;20053;-83
2023/09/27 11:43:42;;;;;;;2.05;0.88;;;21.30;90.00;;;;;;4995977;28;20053;-82
2023/09/27 11:46:09;;;;;;;3.83;1.83;;;21.30;90.10;;;;;;4992939;28;20115;-82
2023/09/27 11:48:39;;;;;;;2.22;1.27;;;21.20;90.10;;;;;;5003565;28;20049;-82
2023/09/27 11:51:06;;;;;;;2.88;1.42;;;21.20;90.10;;;;;;5014043;28;20038;-82
2023/09/27 11:53:33;;;;;;;3.40;1.67;;;21.10;90.10;;;;;;4986173;28;20041;-81
2023/09/27 11:56:01;;;;;;;2.92;1.77;;;21.10;90.00;;;;;;4990450;28;20046;-81
2023/09/27 11:58:28;;;;;;;2.80;1.45;;;21.00;90.00;;;;;;4969351;28;20074;-80
2023/09/27 12:00:55;;;;;;;2.75;1.55;;;21.00;90.00;;;;;;5008247;28;20046;-84
2023/09/27 12:03:25;;;;;;;5.20;1.60;;;21.00;90.10;;;;;;4995767;28;20140;-85
2023/09/27 12:05:54;;;;;;;1.88;1.00;;;20.90;90.00;;;;;;4986517;28;20488;-84
2023/09/27 12:08:21;;;;;;;1.98;1.10;;;20.90;90.00;;;;;;5011485;28;20060;-83
2023/09/27 12:10:52;;;;;;;2.20;1.10;;;20.90;89.90;;;;;;4949811;28;20411;-85
2023/09/27 12:13:27;;;;;;;2.78;0.90;;;20.90;89.80;;;;;;4995271;28;20043;-83
2023/09/27 12:15:54;;;;;;;1.80;1.00;;;20.90;89.70;;;;;;4984591;28;20084;-83
2023/09/27 12:18:38;;;;;;;2.88;1.48;;;20.90;89.60;;;;;;4998322;28;20060;-85
2023/09/27 12:21:05;;;;;;;2.53;1.20;;;20.90;89.40;;;;;;5009190;28;20596;-84
2023/09/27 12:23:33;;;;;;;2.50;0.95;;;20.90;89.30;;;;;;4967992;28;20065;-84
2023/09/27 12:26:00;;;;;;;2.38;1.00;;;20.90;89.20;;;;;;4967235;28;20050;-83
2023/09/27 12:28:29;;;;;;;2.33;1.23;;;20.90;89.00;;;;;;4974726;28;20061;-84
2023/09/27 12:31:06;;;;;;;1.90;0.90;;;21.00;89.00;;;;;;4965309;28;20039;-85
2023/09/27 12:33:35;;;;;;;2.95;1.05;;;21.00;89.40;;;;;;4999176;28;20049;-84
2023/09/27 12:36:03;;;;;;;3.50;1.08;;;21.10;88.70;;;;;;4998884;28;20050;-84
2023/09/27 12:38:35;;;;;;;2.05;1.00;;;21.10;88.60;;;;;;5007706;28;20042;-83
2023/09/27 12:41:06;;;;;;;2.17;1.38;;;21.10;88.40;;;;;;4982532;28;20073;-84
2023/09/27 12:43:34;;;;;;;2.33;1.10;;;21.20;88.00;;;;;;4995426;28;20047;-84
2023/09/27 12:46:05;;;;;;;2.10;1.13;;;21.40;87.70;;;;;;4996638;28;20052;-85
2023/09/27 12:48:35;;;;;;;2.58;1.67;;;21.60;87.20;;;;;;4986643;28;20042;-84
2023/09/27 12:51:08;;;;;;;2.95;1.20;;;21.70;86.60;;;;;;4998799;28;20085;-85
2023/09/27 12:53:38;;;;;;;1.73;0.80;;;22.00;86.20;;;;;;4998864;28;20085;-85
2023/09/27 12:56:09;;;;;;;2.88;1.30;;;22.10;85.80;;;;;;4998092;28;20064;-84
2023/09/27 12:58:37;;;;;;;3.38;1.30;;;22.30;85.30;;;;;;4955680;28;20056;-84
2023/09/27 13:01:04;;;;;;;1.98;1.00;;;22.40;85.00;;;;;;4998066;28;20052;-84
2023/09/27 13:03:31;;;;;;;2.28;1.02;;;22.60;84.70;;;;;;4994422;28;20062;-84
2023/09/27 13:05:59;;;;;;;2.47;1.10;;;22.70;84.40;;;;;;4992943;28;20046;-83
2023/09/27 13:08:27;;;;;;;3.00;1.30;;;22.80;83.90;;;;;;5014126;28;20056;-84
2023/09/27 13:10:57;;;;;;;3.17;1.88;;;22.90;83.70;;;;;;4997602;28;20042;-84
2023/09/27 13:13:24;;;;;;;2.40;1.10;;;23.00;83.30;;;;;;4982039;28;20472;-84
2023/09/27 13:15:51;;;;;;;1.88;0.90;;;23.10;83.10;;;;;;4997300;28;20136;-84
2023/09/27 13:18:18;;;;;;;2.58;1.25;;;23.30;82.70;;;;;;5005881;28;20110;-84
2023/09/27 13:20:49;;;;;;;1.98;0.85;;;23.40;82.30;;;;;;4985698;28;20054;-84
2023/09/27 13:23:16;;;;;;;3.08;1.90;;;23.50;82.10;;;;;;4997749;28;20050;-84
2023/09/27 13:25:54;;;;;;;3.17;1.70;;;23.50;81.50;;;;;;5000194;28;20054;-82
2023/09/27 13:28:22;;;;;;;2.95;1.55;;;23.50;81.10;;;;;;4997547;28;20050;-84
2023/09/27 13:30:52;;;;;;;3.63;1.20;;;23.50;81.30;;;;;;4997602;28;20128;-84
2023/09/27 13:33:25;;;;;;;2.83;1.25;;;23.50;81.40;;;;;;4981536;28;20522;-84
2023/09/27 13:35:52;;;;;;;2.15;1.45;;;23.50;81.40;;;;;;4981210;28;20041;-84
2023/09/27 13:38:20;;;;;;;1.95;1.05;;;23.50;81.40;;;;;;4997124;28;20095;-84
2023/09/27 13:40:50;;;;;;;3.47;1.38;;;23.50;81.30;;;;;;4997290;28;20045;-84
2023/09/27 13:43:20;;;;;;;3.07;1.50;;;23.50;81.30;;;;;;5013649;28;20046;-84
2023/09/27 13:45:49;;;;;;;2.78;1.40;;;23.50;81.30;;;;;;4997297;28;20297;-85
2023/09/27 13:48:19;;;;;;;2.55;1.48;;;23.50;81.20;;;;;;4997629;28;20042;-84
2023/09/27 13:50:49;;;;;;;3.28;1.40;;;23.40;81.30;;;;;;4996213;28;20137;-85
2023/09/27 13:53:16;;;;;;;3.38;0.98;;;23.40;81.30;;;;;;5013218;28;20054;-85
2023/09/27 13:55:47;;;;;;;2.63;1.13;;;23.30;81.40;;;;;;5003908;28;20050;-84
2023/09/27 13:58:20;;;;;;;2.47;1.10;;;23.30;81.60;;;;;;4994767;28;20038;-84
2023/09/27 14:00:51;;;;;;;1.95;0.93;;;23.20;81.70;;;;;;4996912;28;20050;-84
2023/09/27 14:03:19;;;;;;;2.10;0.95;;;23.20;81.80;;;;;;4995515;28;20049;-85